AirNav   Everest Fuels
 
 915 users online  

0PA0 Richfield Station Heliport
Richfield, Pennsylvania, USA


FAA INFORMATION EFFECTIVE 30 JANUARY 2020

Location

FAA Identifier: 0PA0
Lat/Long: 40-41-03.4900N 077-07-35.1500W
40-41.058167N 077-07.585833W
40.6843028,-77.1264306
(estimated)
Elevation: 674 ft. / 205 m (estimated)
From city: 1 mile SW of RICHFIELD, PA
Time zone: UTC -5 (UTC -4 during Daylight Saving Time)
Zip code: 17086

Heliport Operations

Heliport use: Private use. Permission required prior to landing
Activation date: 08/2018
Control tower: no
ARTCC: NEW YORK CENTER
FSS: WILLIAMSPORT FLIGHT SERVICE STATION
Attendance: 
Segmented circle: no

Heliport Communications

WX ASOS at SEG (14 nm NE): 123.975 (570-374-4099)

Nearby radio navigation aids

VOR radial/distance  VOR name  Freq  Var
SEGr248/12.7SELINSGROVE VOR/DME110.4008W
HARr004/23.1HARRISBURG VORTAC112.5010W
RAVr299/25.3RAVINE VORTAC114.6011W
MIPr235/29.2MILTON VORTAC109.2009W

 
NDB name  Hdg/Dist  Freq  Var  ID
BELLGROVE310/30.132810WBZJ -... --.. .---

Heliport Services

Runway Information

Helipad H1

Dimensions: 44 x 44 ft. / 13 x 13 m
Surface: asphalt, in fair condition
Latitude: 40-41.058167N
Longitude: 077-07.585833W
Elevation: 674.0 ft.
Traffic pattern: leftleft

Heliport Ownership and Management from official FAA records

Ownership: Privately-owned
Owner: RICHFIELD AMBULANCE LEAGUE
P.O. BOX 236
RICHFIELD, PA 17086
Phone 717-694-3800
Manager: JASON SHEAFFER
P.O. BOX 236
RICHFIELD, PA 17086
Phone 570-765-5239

Additional Remarks

FOR CD CTC HARRISBURG APCH AT 800-932-0712

Instrument Procedures

There are no published instrument procedures at 0PA0.

Some nearby airports with instrument procedures:

P34 - Mifflintown Airport (14 nm W)
KSEG - Penn Valley Airport (14 nm NE)
KRVL - Mifflin County Airport (23 nm W)
74N - Bendigo Airport (27 nm E)
8N8 - Danville Airport (27 nm NE)
 
Loc | Ops | Rwys | IFR | FBO | Links
Com | Nav | Svcs | Stats | Notes
Aerial photo
No photo
 
Airport distance calculator
Flying to Richfield Station Heliport? Find the distance to fly.

From to 0PA0

Sunrise and sunset
Times for 16-Feb-2020
 Local
(UTC-5)
 Zulu
(UTC)
Morning civil twilight06:3411:34
Sunrise07:0212:02
Sunset17:4322:43
Evening civil twilight18:1123:11

Current date and time
Zulu (UTC)  17-Feb-2020 01:09:29
Local (UTC-5)  16-Feb-2020 20:09:29
 
METAR
KSEG 
14nm NE 
170053Z AUTO 34007KT 10SM FEW050 OVC070 01/M03 A3011 RMK AO2 SLP201 T00061033
KRVL 
23nm W 
170055Z AUTO VRB03KT 10SM BKN038 OVC045 03/M02 A3009 RMK AO2
TAF
KMDT 
33nm SE 
161800Z 1618/1718 VRB04KT P6SM OVC120 FM162000 21005KT P6SM VCSH BKN050 OVC080 FM170600 26007KT P6SM SCT040 BKN150
KUNV 
34nm W 
161800Z 1618/1718 26006KT P6SM OVC040 FM162100 27008KT P6SM BKN040 OVC060 FM170400 28007KT P6SM BKN035 FM171500 VRB02KT P6SM OVC150
KIPT 
35nm N 
161800Z 1618/1718 08005KT P6SM OVC045 FM162000 26007KT P6SM OVC050 FM170500 28004KT P6SM BKN040
NOTAMs
Click for the latest NOTAMs
NOTAMs are issued by the DoD/FAA and will open in a separate window not controlled by AirNav.

 

 
 

Would you like to see your business listed on this page?

 If your business provides an interesting product or service to pilots, flight crews, aircraft, or users of the Richfield Station Heliport, you should consider listing it here.  To start the listing process, click on the button below
 
Add a business
 

Other Pages about Richfield Station Heliport

Update a link
 
Copyright © AirNav, LLC. All rights reserved. Privacy Policy  Contact